sensor_id;sensor_type;location;lat;lon;timestamp;P1;durP1;ratioP1;P2;durP2;ratioP2
5827;SDS011;42583;50.240;8.444;2024-03-23T01:07:17;19.05;;;7.70;;
5827;SDS011;42583;50.240;8.444;2024-03-23T01:22:18;16.52;;;7.32;;
5827;SDS011;42583;50.240;8.444;2024-03-23T01:37:19;12.98;;;6.22;;
5827;SDS011;42583;50.240;8.444;2024-03-23T01:52:19;16.02;;;7.07;;
5827;SDS011;42583;50.240;8.444;2024-03-23T02:07:20;14.55;;;7.63;;
5827;SDS011;42583;50.240;8.444;2024-03-23T02:22:20;16.13;;;7.15;;
5827;SDS011;42583;50.240;8.444;2024-03-23T02:37:21;37.53;;;14.85;;
5827;SDS011;42583;50.240;8.444;2024-03-23T02:52:21;46.50;;;19.45;;
5827;SDS011;42583;50.240;8.444;2024-03-23T03:07:22;40.28;;;17.55;;
5827;SDS011;42583;50.240;8.444;2024-03-23T03:22:22;49.22;;;18.90;;
5827;SDS011;42583;50.240;8.444;2024-03-23T03:37:24;72.00;;;20.63;;
5827;SDS011;42583;50.240;8.444;2024-03-23T03:52:25;425.60;;;10.25;;
5827;SDS011;42583;50.240;8.444;2024-03-23T04:07:25;238.13;;;5.57;;
5827;SDS011;42583;50.240;8.444;2024-03-23T04:22:26;70.60;;;2.55;;
5827;SDS011;42583;50.240;8.444;2024-03-23T04:37:27;205.25;;;4.50;;
5827;SDS011;42583;50.240;8.444;2024-03-23T04:52:27;253.15;;;6.28;;
5827;SDS011;42583;50.240;8.444;2024-03-23T05:07:28;437.55;;;9.50;;
5827;SDS011;42583;50.240;8.444;2024-03-23T05:22:28;184.63;;;5.03;;
5827;SDS011;42583;50.240;8.444;2024-03-23T05:37:29;321.88;;;7.60;;
5827;SDS011;42583;50.240;8.444;2024-03-23T05:52:31;8.90;;;1.20;;
5827;SDS011;42583;50.240;8.444;2024-03-23T06:07:31;11.52;;;1.20;;
5827;SDS011;42583;50.240;8.444;2024-03-23T06:22:32;1.08;;;0.90;;
5827;SDS011;42583;50.240;8.444;2024-03-23T06:37:34;103.50;;;2.78;;
5827;SDS011;42583;50.240;8.444;2024-03-23T06:52:35;12.80;;;1.52;;
5827;SDS011;42583;50.240;8.444;2024-03-23T07:07:37;10.00;;;1.65;;
5827;SDS011;42583;50.240;8.444;2024-03-23T07:22:39;4.82;;;2.00;;
5827;SDS011;42583;50.240;8.444;2024-03-23T07:37:39;26.90;;;3.90;;
5827;SDS011;42583;50.240;8.444;2024-03-23T07:52:40;9.40;;;4.97;;
5827;SDS011;42583;50.240;8.444;2024-03-23T08:07:41;310.33;;;9.95;;
5827;SDS011;42583;50.240;8.444;2024-03-23T08:22:42;20.73;;;5.20;;
5827;SDS011;42583;50.240;8.444;2024-03-23T08:37:42;14.07;;;4.90;;
5827;SDS011;42583;50.240;8.444;2024-03-23T08:52:43;11.63;;;4.20;;
5827;SDS011;42583;50.240;8.444;2024-03-23T09:07:43;19.85;;;5.20;;
5827;SDS011;42583;50.240;8.444;2024-03-23T09:22:44;16.52;;;4.35;;
5827;SDS011;42583;50.240;8.444;2024-03-23T09:37:49;16.13;;;3.90;;
5827;SDS011;42583;50.240;8.444;2024-03-23T09:52:49;10.63;;;2.53;;
5827;SDS011;42583;50.240;8.444;2024-03-23T10:07:50;10.00;;;2.50;;
5827;SDS011;42583;50.240;8.444;2024-03-23T10:22:51;11.95;;;2.42;;
5827;SDS011;42583;50.240;8.444;2024-03-23T10:37:51;7.88;;;1.95;;
5827;SDS011;42583;50.240;8.444;2024-03-23T10:52:53;10.02;;;1.90;;
5827;SDS011;42583;50.240;8.444;2024-03-23T11:07:56;7.38;;;1.98;;
5827;SDS011;42583;50.240;8.444;2024-03-23T11:22:56;7.10;;;1.90;;
5827;SDS011;42583;50.240;8.444;2024-03-23T11:38:07;9.82;;;2.75;;
5827;SDS011;42583;50.240;8.444;2024-03-23T11:53:21;10.33;;;2.77;;
5827;SDS011;42583;50.240;8.444;2024-03-23T12:08:24;10.27;;;2.40;;
5827;SDS011;42583;50.240;8.444;2024-03-23T12:23:28;7.70;;;2.35;;
5827;SDS011;42583;50.240;8.444;2024-03-23T12:38:30;6.15;;;1.80;;
5827;SDS011;42583;50.240;8.444;2024-03-23T12:53:30;8.82;;;3.22;;
5827;SDS011;42583;50.240;8.444;2024-03-23T13:08:31;3.67;;;1.40;;
5827;SDS011;42583;50.240;8.444;2024-03-23T13:23:31;5.88;;;1.20;;
5827;SDS011;42583;50.240;8.444;2024-03-23T13:38:34;2.25;;;1.40;;
5827;SDS011;42583;50.240;8.444;2024-03-23T13:53:34;4.70;;;1.40;;
5827;SDS011;42583;50.240;8.444;2024-03-23T14:08:35;4.63;;;1.15;;
5827;SDS011;42583;50.240;8.444;2024-03-23T14:23:39;4.07;;;1.40;;
5827;SDS011;42583;50.240;8.444;2024-03-23T14:38:41;1.77;;;0.90;;
5827;SDS011;42583;50.240;8.444;2024-03-23T14:53:44;1.50;;;1.20;;
5827;SDS011;42583;50.240;8.444;2024-03-23T15:08:45;2.57;;;1.13;;
5827;SDS011;42583;50.240;8.444;2024-03-23T15:23:46;5.20;;;1.80;;
5827;SDS011;42583;50.240;8.444;2024-03-23T15:38:47;2.42;;;1.08;;
5827;SDS011;42583;50.240;8.444;2024-03-23T15:53:49;2.78;;;1.38;;
5827;SDS011;42583;50.240;8.444;2024-03-23T16:08:52;3.58;;;0.95;;
5827;SDS011;42583;50.240;8.444;2024-03-23T16:23:53;2.92;;;1.13;;
5827;SDS011;42583;50.240;8.444;2024-03-23T16:38:53;2.97;;;1.40;;
5827;SDS011;42583;50.240;8.444;2024-03-23T16:53:54;2.35;;;1.10;;
5827;SDS011;42583;50.240;8.444;2024-03-23T17:08:59;4.00;;;1.27;;
5827;SDS011;42583;50.240;8.444;2024-03-23T17:23:59;0.95;;;0.70;;
5827;SDS011;42583;50.240;8.444;2024-03-23T17:39:00;23.98;;;1.23;;
5827;SDS011;42583;50.240;8.444;2024-03-23T17:54:01;5.28;;;2.42;;
5827;SDS011;42583;50.240;8.444;2024-03-23T18:09:01;5.38;;;2.00;;
5827;SDS011;42583;50.240;8.444;2024-03-23T18:24:03;8.07;;;1.50;;
5827;SDS011;42583;50.240;8.444;2024-03-23T18:39:04;6.00;;;1.92;;
5827;SDS011;42583;50.240;8.444;2024-03-23T18:54:05;1.95;;;1.30;;
5827;SDS011;42583;50.240;8.444;2024-03-23T19:09:05;2.90;;;1.60;;
5827;SDS011;42583;50.240;8.444;2024-03-23T19:24:06;5.15;;;1.40;;
5827;SDS011;42583;50.240;8.444;2024-03-23T19:39:07;5.28;;;1.20;;
5827;SDS011;42583;50.240;8.444;2024-03-23T19:54:07;2.92;;;1.42;;
5827;SDS011;42583;50.240;8.444;2024-03-23T20:09:08;2.45;;;1.20;;
5827;SDS011;42583;50.240;8.444;2024-03-23T20:24:09;2.38;;;1.00;;
5827;SDS011;42583;50.240;8.444;2024-03-23T20:39:09;1.52;;;0.90;;
5827;SDS011;42583;50.240;8.444;2024-03-23T20:54:10;58.67;;;2.63;;
5827;SDS011;42583;50.240;8.444;2024-03-23T21:09:13;2.03;;;1.38;;
5827;SDS011;42583;50.240;8.444;2024-03-23T21:24:14;5.22;;;1.33;;
5827;SDS011;42583;50.240;8.444;2024-03-23T21:39:17;3.03;;;1.42;;
5827;SDS011;42583;50.240;8.444;2024-03-23T21:54:18;2.83;;;1.60;;
5827;SDS011;42583;50.240;8.444;2024-03-23T22:09:19;6.32;;;1.60;;
5827;SDS011;42583;50.240;8.444;2024-03-23T22:24:20;8.38;;;1.80;;
5827;SDS011;42583;50.240;8.444;2024-03-23T22:39:20;5.25;;;1.85;;
5827;SDS011;42583;50.240;8.444;2024-03-23T22:54:21;6.40;;;2.30;;
5827;SDS011;42583;50.240;8.444;2024-03-23T23:09:21;7.07;;;2.30;;
5827;SDS011;42583;50.240;8.444;2024-03-23T23:24:22;6.53;;;2.35;;
5827;SDS011;42583;50.240;8.444;2024-03-23T23:39:22;4.30;;;2.15;;
5827;SDS011;42583;50.240;8.444;2024-03-23T23:54:23;24.60;;;3.13;;
